createdAt,value
2024-04-13T00:01:39.653Z,13.62
2024-04-13T00:04:09.769Z,13.61
2024-04-13T00:06:39.472Z,13.62
2024-04-13T00:09:10.307Z,13.56
2024-04-13T00:11:40.097Z,13.54
2024-04-13T00:14:10.206Z,13.54
2024-04-13T00:16:37.476Z,13.54
2024-04-13T00:19:07.305Z,13.50
2024-04-13T00:21:34.649Z,13.45
2024-04-13T00:24:04.562Z,13.49
2024-04-13T00:26:33.858Z,13.56
2024-04-13T00:29:07.586Z,13.55
2024-04-13T00:31:35.115Z,13.54
2024-04-13T00:34:05.997Z,13.61
2024-04-13T00:36:36.815Z,13.53
2024-04-13T00:39:07.905Z,13.44
2024-04-13T00:41:35.189Z,13.41
2024-04-13T00:44:08.194Z,13.37
2024-04-13T00:46:35.426Z,13.31
2024-04-13T00:49:12.526Z,13.30
2024-04-13T00:51:42.596Z,13.24
2024-04-13T00:54:14.370Z,13.22
2024-04-13T00:56:42.280Z,13.22
2024-04-13T00:59:15.311Z,13.22
2024-04-13T01:01:42.956Z,13.19
2024-04-13T01:04:14.323Z,13.10
2024-04-13T01:06:41.869Z,13.07
2024-04-13T01:09:11.887Z,13.04
2024-04-13T01:11:40.028Z,13.05
2024-04-13T01:14:11.964Z,13.07
2024-04-13T01:16:41.989Z,13.07
2024-04-13T01:19:13.212Z,13.12
2024-04-13T01:21:41.326Z,13.10
2024-04-13T01:24:14.328Z,13.11
2024-04-13T01:26:42.888Z,13.11
2024-04-13T01:29:12.761Z,13.08
2024-04-13T01:31:39.966Z,13.00
2024-04-13T01:34:10.194Z,12.93
2024-04-13T01:36:37.945Z,12.92
2024-04-13T01:39:09.474Z,12.89
2024-04-13T01:41:43.697Z,12.88
2024-04-13T01:44:13.829Z,12.90
2024-04-13T01:46:41.037Z,12.91
2024-04-13T01:49:10.802Z,12.90
2024-04-13T01:51:38.402Z,12.85
2024-04-13T01:54:08.351Z,12.75
2024-04-13T01:56:35.529Z,12.79
2024-04-13T01:59:07.945Z,12.76
2024-04-13T02:01:35.537Z,12.73
2024-04-13T02:04:05.471Z,12.69
2024-04-13T02:06:32.740Z,12.67
2024-04-13T02:09:02.594Z,12.67
2024-04-13T02:11:30.683Z,12.63
2024-04-13T02:14:00.485Z,12.57
2024-04-13T02:16:30.921Z,12.54
2024-04-13T02:19:00.988Z,12.52
2024-04-13T02:21:29.381Z,12.53
2024-04-13T02:23:59.299Z,12.50
2024-04-13T02:26:26.522Z,12.55
2024-04-13T02:28:56.255Z,12.55
2024-04-13T02:31:23.391Z,12.53
2024-04-13T02:33:56.053Z,12.54
2024-04-13T02:36:23.471Z,12.52
2024-04-13T02:38:53.335Z,12.51
2024-04-13T02:41:20.517Z,12.49
2024-04-13T02:43:50.320Z,12.45
2024-04-13T02:46:18.059Z,12.42
2024-04-13T02:48:49.431Z,12.40
2024-04-13T02:51:19.486Z,12.41
2024-04-13T02:53:49.287Z,12.40
2024-04-13T02:56:16.472Z,12.40
2024-04-13T02:58:46.313Z,12.37
2024-04-13T03:01:13.703Z,12.37
2024-04-13T03:03:43.702Z,12.35
2024-04-13T03:06:13.031Z,12.36
2024-04-13T03:08:45.559Z,12.28
2024-04-13T03:11:13.613Z,12.26
2024-04-13T03:13:43.978Z,12.22
2024-04-13T03:16:11.886Z,12.12
2024-04-13T03:18:43.532Z,12.08
2024-04-13T03:21:11.463Z,12.05
2024-04-13T03:23:46.107Z,12.02
2024-04-13T03:26:13.598Z,11.99
2024-04-13T03:28:44.433Z,12.01
2024-04-13T03:31:11.709Z,12.03
2024-04-13T03:33:41.519Z,12.03
2024-04-13T03:36:09.070Z,12.03
2024-04-13T03:38:38.942Z,11.99
2024-04-13T03:41:11.492Z,11.93
2024-04-13T03:43:41.624Z,11.89
2024-04-13T03:46:08.859Z,11.83
2024-04-13T03:48:43.563Z,11.78
2024-04-13T03:51:11.778Z,11.71
2024-04-13T03:53:42.052Z,11.66
2024-04-13T03:56:11.931Z,11.64
2024-04-13T03:58:42.840Z,11.62
2024-04-13T04:01:10.094Z,11.62
2024-04-13T04:03:40.259Z,11.60
2024-04-13T04:06:07.886Z,11.57
2024-04-13T04:08:37.805Z,11.56
2024-04-13T04:11:05.140Z,11.58
2024-04-13T04:13:37.635Z,11.57
2024-04-13T04:16:05.550Z,11.56
2024-04-13T04:18:35.406Z,11.52
2024-04-13T04:21:03.420Z,11.52
2024-04-13T04:23:34.226Z,11.58
2024-04-13T04:26:03.332Z,11.52
2024-04-13T04:28:33.164Z,11.52
2024-04-13T04:31:13.841Z,11.54
2024-04-13T04:33:44.174Z,11.54
2024-04-13T04:36:11.544Z,11.54
2024-04-13T04:38:41.470Z,11.62
2024-04-13T04:41:08.673Z,11.65
2024-04-13T04:43:38.428Z,11.71
2024-04-13T04:46:05.592Z,11.73
2024-04-13T04:48:38.340Z,11.74
2024-04-13T04:51:06.610Z,11.84
2024-04-13T04:53:36.993Z,11.90
2024-04-13T04:56:04.676Z,11.99
2024-04-13T04:58:34.477Z,12.09
2024-04-13T05:01:02.936Z,12.11
2024-04-13T05:03:33.123Z,12.17
2024-04-13T05:06:04.426Z,12.27
2024-04-13T05:08:34.242Z,12.43
2024-04-13T05:11:01.492Z,12.52
2024-04-13T05:13:32.489Z,12.55
2024-04-13T05:15:59.671Z,12.63
2024-04-13T05:18:29.661Z,12.68
2024-04-13T05:20:56.970Z,12.74
2024-04-13T05:23:29.461Z,12.85
2024-04-13T05:25:56.707Z,13.01
2024-04-13T05:28:27.840Z,13.15
2024-04-13T05:30:57.785Z,13.23
2024-04-13T05:33:28.632Z,13.32
2024-04-13T05:35:58.654Z,13.47
2024-04-13T05:38:31.576Z,13.62
2024-04-13T05:40:58.794Z,13.78
2024-04-13T05:43:28.715Z,13.99
2024-04-13T05:45:56.357Z,14.20
2024-04-13T05:48:26.339Z,14.41
2024-04-13T05:50:57.650Z,14.63
2024-04-13T05:53:32.410Z,14.87
2024-04-13T05:56:05.853Z,15.08
2024-04-13T05:58:36.933Z,15.28
2024-04-13T06:01:04.524Z,15.50
2024-04-13T06:03:34.942Z,15.76
2024-04-13T06:06:02.358Z,15.94
2024-04-13T06:08:34.836Z,16.20
2024-04-13T06:11:02.184Z,16.38
2024-04-13T06:13:32.037Z,16.64
2024-04-13T06:16:03.395Z,16.92
2024-04-13T06:18:33.348Z,17.10
2024-04-13T06:21:01.680Z,17.37
2024-04-13T06:23:34.163Z,17.60
2024-04-13T06:26:01.426Z,17.88
2024-04-13T06:28:31.640Z,18.16
2024-04-13T06:30:58.983Z,18.64
2024-04-13T06:33:29.095Z,18.96
2024-04-13T06:35:56.478Z,19.37
2024-04-13T06:38:29.223Z,19.76
2024-04-13T06:40:59.031Z,20.04
2024-04-13T06:43:28.825Z,20.34
2024-04-13T06:45:56.043Z,20.57
2024-04-13T06:48:25.941Z,20.89
2024-04-13T06:50:53.461Z,21.29
2024-04-13T06:53:24.664Z,21.70
2024-04-13T06:55:51.846Z,22.12
2024-04-13T06:58:25.258Z,22.33
2024-04-13T07:00:57.074Z,22.59
2024-04-13T07:03:27.418Z,22.87
2024-04-13T07:05:59.238Z,22.82
2024-04-13T07:08:29.258Z,23.11
2024-04-13T07:10:57.378Z,23.23
2024-04-13T07:13:30.002Z,23.69
2024-04-13T07:15:57.340Z,24.35
2024-04-13T07:18:27.192Z,24.32
2024-04-13T07:20:54.392Z,24.02
2024-04-13T07:23:24.235Z,23.84
2024-04-13T07:25:58.195Z,24.60
2024-04-13T07:28:31.324Z,24.79
2024-04-13T07:30:58.996Z,25.17
2024-04-13T07:33:30.663Z,25.69
2024-04-13T07:35:58.197Z,26.03
2024-04-13T07:38:28.812Z,26.28
2024-04-13T07:40:55.955Z,25.91
2024-04-13T07:43:26.028Z,26.52
2024-04-13T07:45:55.968Z,26.61
2024-04-13T07:48:29.182Z,26.53
2024-04-13T07:50:57.362Z,26.85
2024-04-13T07:53:31.955Z,26.92
2024-04-13T07:55:59.361Z,27.57
2024-04-13T07:58:29.153Z,27.47
2024-04-13T08:00:59.122Z,28.01
2024-04-13T08:03:29.111Z,28.35
2024-04-13T08:05:56.407Z,28.25
2024-04-13T08:08:26.929Z,27.95
2024-04-13T08:10:54.231Z,29.29
2024-04-13T08:13:24.039Z,28.82
2024-04-13T08:15:51.319Z,27.99
2024-04-13T08:18:23.838Z,28.53
2024-04-13T08:20:51.480Z,28.45
2024-04-13T08:23:21.330Z,28.71
2024-04-13T08:25:48.528Z,28.02
2024-04-13T08:28:18.349Z,28.73
2024-04-13T08:30:45.757Z,29.11
2024-04-13T08:33:15.648Z,29.07
2024-04-13T08:35:45.688Z,29.60
2024-04-13T08:38:18.072Z,29.62
2024-04-13T08:40:50.483Z,30.61
2024-04-13T08:43:20.371Z,30.18
2024-04-13T08:45:48.006Z,30.49
2024-04-13T08:48:19.170Z,30.75
2024-04-13T08:50:50.635Z,30.40
2024-04-13T08:53:21.465Z,31.16
2024-04-13T08:55:49.740Z,31.42
2024-04-13T08:58:21.931Z,30.69
2024-04-13T09:00:53.555Z,30.99
2024-04-13T09:03:24.393Z,31.67
2024-04-13T09:05:54.285Z,32.08
2024-04-13T09:08:26.556Z,32.17
2024-04-13T09:10:56.389Z,31.77
2024-04-13T09:13:26.262Z,32.85
2024-04-13T09:15:53.456Z,31.75
2024-04-13T09:18:23.458Z,32.48
2024-04-13T09:20:55.306Z,32.93
2024-04-13T09:23:25.200Z,33.29
2024-04-13T09:26:01.761Z,33.14
2024-04-13T09:28:41.595Z,32.91
2024-04-13T09:31:10.656Z,33.11
2024-04-13T09:33:41.761Z,32.73
2024-04-13T09:36:11.647Z,33.02
2024-04-13T09:38:41.453Z,33.07
2024-04-13T09:41:08.812Z,32.88
2024-04-13T09:43:39.635Z,32.56
2024-04-13T09:46:06.863Z,33.33
2024-04-13T09:48:37.770Z,32.90
2024-04-13T09:51:05.665Z,33.57
2024-04-13T09:53:38.609Z,32.94
2024-04-13T09:56:06.171Z,33.82
2024-04-13T09:58:36.216Z,33.10
2024-04-13T10:01:04.716Z,33.82
2024-04-13T10:03:34.996Z,33.52
2024-04-13T10:06:10.735Z,33.50
2024-04-13T10:08:43.531Z,34.14
2024-04-13T10:11:12.471Z,33.36
2024-04-13T10:13:45.781Z,33.96
2024-04-13T10:16:15.701Z,34.61
2024-04-13T10:18:46.983Z,33.88
2024-04-13T10:21:15.312Z,33.88
2024-04-13T10:23:49.220Z,34.11
2024-04-13T10:26:26.363Z,34.28
2024-04-13T10:29:00.867Z,34.20
2024-04-13T10:31:29.499Z,34.88
2024-04-13T10:34:00.519Z,34.23
2024-04-13T10:36:28.698Z,35.08
2024-04-13T10:39:04.627Z,34.86
2024-04-13T10:41:32.948Z,35.22
2024-04-13T10:44:03.297Z,35.59
2024-04-13T10:46:30.902Z,35.43
2024-04-13T10:49:01.394Z,34.56
2024-04-13T10:51:28.634Z,33.61
2024-04-13T10:54:02.319Z,33.71
2024-04-13T10:56:29.703Z,34.65
2024-04-13T10:58:59.871Z,34.16
2024-04-13T11:01:27.072Z,34.46
2024-04-13T11:04:05.715Z,35.08
2024-04-13T11:06:33.224Z,35.90
2024-04-13T11:09:05.779Z,36.10
2024-04-13T11:11:33.015Z,35.90
2024-04-13T11:14:02.942Z,36.49
2024-04-13T11:16:30.198Z,35.60
2024-04-13T11:19:00.187Z,34.92
2024-04-13T11:21:28.059Z,35.98
2024-04-13T11:23:58.547Z,35.64
2024-04-13T11:26:32.349Z,35.43
2024-04-13T11:29:02.457Z,36.11
2024-04-13T11:31:29.938Z,35.43
2024-04-13T11:33:59.913Z,35.94
2024-04-13T11:36:27.176Z,36.47
2024-04-13T11:39:03.468Z,35.74
2024-04-13T11:41:37.003Z,35.24
2024-04-13T11:44:08.443Z,35.62
2024-04-13T11:46:35.620Z,35.53
2024-04-13T11:49:05.893Z,35.77
2024-04-13T11:51:33.207Z,34.33
2024-04-13T11:54:03.116Z,34.92
2024-04-13T11:56:40.860Z,35.82
2024-04-13T11:59:10.645Z,35.48
2024-04-13T12:01:37.844Z,34.77
2024-04-13T12:04:07.984Z,36.07
2024-04-13T12:06:35.365Z,36.15
2024-04-13T12:09:06.101Z,36.93
2024-04-13T12:11:36.749Z,35.58
2024-04-13T12:14:07.479Z,34.52
2024-04-13T12:16:34.822Z,34.31
2024-04-13T12:19:05.384Z,34.70
2024-04-13T12:21:33.352Z,34.57
2024-04-13T12:24:05.132Z,34.48
2024-04-13T12:26:32.442Z,35.70
2024-04-13T12:29:04.969Z,36.15
2024-04-13T12:31:32.149Z,35.68
2024-04-13T12:34:01.970Z,36.13
2024-04-13T12:36:29.217Z,35.91
2024-04-13T12:38:59.070Z,36.21
2024-04-13T12:41:26.233Z,36.33
2024-04-13T12:43:56.007Z,36.73
2024-04-13T12:46:25.878Z,37.30
2024-04-13T12:48:55.736Z,36.01
2024-04-13T12:51:23.022Z,36.61
2024-04-13T12:53:52.810Z,36.24
2024-04-13T12:56:20.018Z,34.67
2024-04-13T12:58:52.586Z,33.63
2024-04-13T13:01:20.452Z,34.26
2024-04-13T13:03:53.144Z,34.67
2024-04-13T13:06:20.300Z,35.64
2024-04-13T13:08:50.056Z,35.24
2024-04-13T13:11:17.271Z,34.51
2024-04-13T13:13:47.093Z,34.52
2024-04-13T13:16:14.432Z,36.10
2024-04-13T13:18:44.231Z,34.88
2024-04-13T13:21:14.092Z,35.83
2024-04-13T13:23:45.588Z,35.95
2024-04-13T13:26:13.534Z,35.95
2024-04-13T13:28:43.327Z,35.78
2024-04-13T13:31:10.523Z,36.48
2024-04-13T13:33:40.355Z,36.51
2024-04-13T13:36:07.932Z,35.96
2024-04-13T13:38:40.715Z,36.34
2024-04-13T13:41:07.643Z,35.62
2024-04-13T13:43:37.450Z,36.25
2024-04-13T13:46:04.993Z,36.37
2024-04-13T13:48:34.925Z,35.66
2024-04-13T13:51:02.418Z,34.75
2024-04-13T13:53:32.216Z,35.83
2024-04-13T13:56:02.029Z,35.88
2024-04-13T13:58:31.873Z,35.29
2024-04-13T14:01:04.871Z,35.11
2024-04-13T14:03:34.911Z,35.88
2024-04-13T14:06:02.361Z,36.26
2024-04-13T14:08:32.365Z,36.04
2024-04-13T14:11:02.249Z,36.09
2024-04-13T14:13:32.195Z,36.26
2024-04-13T14:16:00.421Z,34.21
2024-04-13T14:18:30.368Z,33.90
2024-04-13T14:21:00.662Z,35.05
2024-04-13T14:23:32.123Z,34.11
2024-04-13T14:26:01.927Z,34.98
2024-04-13T14:28:31.695Z,35.33
2024-04-13T14:31:01.996Z,35.44
2024-04-13T14:33:33.022Z,34.47
2024-04-13T14:36:00.384Z,34.86
2024-04-13T14:38:30.159Z,35.78
2024-04-13T14:40:57.303Z,35.72
2024-04-13T14:43:29.727Z,36.12
2024-04-13T14:45:57.719Z,35.98
2024-04-13T14:48:28.715Z,35.63
2024-04-13T14:50:56.075Z,34.58
2024-04-13T14:53:26.136Z,34.32
2024-04-13T14:55:55.690Z,34.62
2024-04-13T14:58:25.655Z,35.28
2024-04-13T15:01:02.347Z,34.38
2024-04-13T15:03:32.362Z,34.50
2024-04-13T15:05:59.658Z,34.38
2024-04-13T15:08:29.482Z,34.49
2024-04-13T15:10:59.905Z,33.60
2024-04-13T15:13:29.768Z,33.10
2024-04-13T15:15:59.596Z,33.86
2024-04-13T15:18:29.594Z,34.01
2024-04-13T15:20:59.847Z,34.32
2024-04-13T15:23:29.730Z,34.00
2024-04-13T15:25:56.896Z,33.22
2024-04-13T15:28:26.691Z,33.56
2024-04-13T15:30:54.043Z,33.58
2024-04-13T15:33:26.706Z,33.53
2024-04-13T15:35:53.894Z,33.39
2024-04-13T15:38:23.655Z,32.39
2024-04-13T15:40:51.465Z,31.77
2024-04-13T15:43:21.312Z,32.34
2024-04-13T15:45:53.081Z,31.87
2024-04-13T15:48:23.495Z,31.44
2024-04-13T15:50:54.262Z,31.55
2024-04-13T15:53:24.128Z,31.52
2024-04-13T15:55:51.288Z,31.40
2024-04-13T15:58:21.916Z,31.00
2024-04-13T16:00:49.213Z,30.61
2024-04-13T16:03:19.130Z,30.79
2024-04-13T16:05:47.565Z,30.63
2024-04-13T16:08:19.953Z,30.38
2024-04-13T16:10:47.217Z,30.30
2024-04-13T16:13:16.984Z,29.92
2024-04-13T16:15:44.350Z,29.51
2024-04-13T16:18:14.323Z,29.75
2024-04-13T16:20:41.590Z,29.21
2024-04-13T16:23:11.369Z,29.24
2024-04-13T16:25:41.555Z,29.10
2024-04-13T16:28:11.498Z,28.92
2024-04-13T16:30:39.217Z,28.75
2024-04-13T16:33:11.581Z,28.62
2024-04-13T16:35:39.812Z,28.38
2024-04-13T16:38:09.569Z,28.24
2024-04-13T16:40:36.748Z,28.12
2024-04-13T16:43:09.216Z,28.07
2024-04-13T16:45:36.407Z,28.03
2024-04-13T16:48:06.522Z,28.01
2024-04-13T16:50:33.726Z,27.90
2024-04-13T16:53:03.473Z,27.75
2024-04-13T16:55:30.643Z,27.77
2024-04-13T16:58:00.438Z,27.51
2024-04-13T17:00:30.256Z,27.13
2024-04-13T17:03:01.565Z,26.95
2024-04-13T17:05:28.910Z,26.67
2024-04-13T17:07:58.688Z,26.57
2024-04-13T17:10:25.905Z,26.42
2024-04-13T17:12:55.702Z,26.20
2024-04-13T17:15:23.446Z,26.04
2024-04-13T17:17:59.808Z,25.87
2024-04-13T17:20:27.098Z,25.77
2024-04-13T17:22:56.859Z,25.59
2024-04-13T17:25:24.024Z,25.41
2024-04-13T17:27:53.903Z,25.17
2024-04-13T17:30:21.226Z,25.08
2024-04-13T17:32:51.984Z,24.90
2024-04-13T17:35:21.827Z,24.70
2024-04-13T17:37:51.661Z,24.54
2024-04-13T17:40:18.932Z,24.38
2024-04-13T17:42:48.820Z,24.25
2024-04-13T17:45:16.456Z,24.10
2024-04-13T17:47:46.333Z,23.94
2024-04-13T17:50:13.800Z,23.78
2024-04-13T17:52:46.276Z,23.60
2024-04-13T17:55:13.557Z,23.38
2024-04-13T17:57:45.537Z,23.20
2024-04-13T18:00:13.510Z,23.10
2024-04-13T18:02:43.665Z,22.86
2024-04-13T18:05:10.963Z,22.77
2024-04-13T18:07:40.896Z,22.54
2024-04-13T18:10:11.071Z,22.38
2024-04-13T18:12:41.267Z,22.24
2024-04-13T18:15:08.813Z,22.08
2024-04-13T18:17:38.766Z,22.01
2024-04-13T18:20:07.079Z,22.01
2024-04-13T18:22:36.896Z,22.03
2024-04-13T18:25:04.294Z,22.18
2024-04-13T18:27:37.006Z,22.24
2024-04-13T18:30:05.254Z,21.89
2024-04-13T18:32:35.201Z,21.87
2024-04-13T18:35:03.185Z,21.82
2024-04-13T18:37:33.224Z,21.67
2024-04-13T18:40:00.687Z,21.45
2024-04-13T18:42:31.323Z,21.29
2024-04-13T18:45:01.680Z,21.23
2024-04-13T18:47:31.663Z,21.14
2024-04-13T18:50:01.229Z,21.16
2024-04-13T18:52:32.624Z,21.12
2024-04-13T18:54:59.960Z,21.04
2024-04-13T18:57:30.463Z,20.98
2024-04-13T19:00:00.527Z,20.99
2024-04-13T19:02:30.424Z,20.95
2024-04-13T19:04:57.670Z,20.85
2024-04-13T19:07:27.728Z,20.80
2024-04-13T19:09:55.028Z,20.78
2024-04-13T19:12:27.354Z,20.73
2024-04-13T19:14:54.669Z,20.68
2024-04-13T19:17:27.342Z,20.60
2024-04-13T19:19:55.992Z,20.49
2024-04-13T19:22:26.504Z,20.34
2024-04-13T19:24:54.015Z,20.26
2024-04-13T19:27:23.927Z,20.18
2024-04-13T19:29:52.430Z,20.15
2024-04-13T19:32:23.134Z,20.10
2024-04-13T19:34:53.124Z,20.04
2024-04-13T19:37:23.327Z,19.96
2024-04-13T19:39:50.986Z,20.00
2024-04-13T19:42:21.297Z,19.90
2024-04-13T19:44:48.486Z,19.70
2024-04-13T19:47:19.649Z,19.68
2024-04-13T19:49:48.838Z,19.81
2024-04-13T19:52:21.361Z,19.67
2024-04-13T19:54:48.608Z,19.60
2024-04-13T19:57:18.387Z,19.59
2024-04-13T19:59:45.622Z,19.49
2024-04-13T20:02:15.408Z,19.41
2024-04-13T20:04:43.837Z,19.42
2024-04-13T20:07:13.923Z,19.44
2024-04-13T20:09:46.160Z,19.42
2024-04-13T20:12:19.663Z,19.38
2024-04-13T20:15:07.972Z,19.28
2024-04-13T20:17:54.222Z,19.21
2024-04-13T20:20:24.635Z,19.14
2024-04-13T20:22:54.586Z,19.09
2024-04-13T20:25:27.191Z,19.04
2024-04-13T20:27:57.332Z,18.94
2024-04-13T20:30:27.445Z,18.89
2024-04-13T20:32:55.390Z,18.87
2024-04-13T20:35:25.181Z,18.82
2024-04-13T20:37:52.412Z,18.76
2024-04-13T20:40:22.250Z,18.72
2024-04-13T20:42:52.048Z,18.73
2024-04-13T20:45:21.882Z,18.67
2024-04-13T20:47:49.152Z,18.62
2024-04-13T20:50:19.062Z,18.64
2024-04-13T20:52:56.582Z,18.66
2024-04-13T20:55:30.234Z,18.60
2024-04-13T20:58:00.157Z,18.55
2024-04-13T21:00:32.158Z,18.45
2024-04-13T21:02:59.803Z,18.38
2024-04-13T21:05:34.515Z,18.29
2024-04-13T21:08:02.022Z,18.28
2024-04-13T21:10:32.405Z,18.18
2024-04-13T21:13:02.594Z,18.08
2024-04-13T21:15:36.310Z,18.02
2024-04-13T21:18:05.019Z,17.98
2024-04-13T21:20:34.972Z,17.96
2024-04-13T21:23:02.728Z,17.85
2024-04-13T21:25:32.538Z,17.85
2024-04-13T21:28:02.621Z,17.83
2024-04-13T21:30:32.699Z,17.70
2024-04-13T21:32:59.975Z,17.59
2024-04-13T21:35:29.763Z,17.62
2024-04-13T21:37:59.102Z,17.57
2024-04-13T21:40:29.196Z,17.50
2024-04-13T21:42:56.430Z,17.46
2024-04-13T21:45:28.894Z,17.42
2024-04-13T21:47:56.126Z,17.36
2024-04-13T21:50:26.830Z,17.32
2024-04-13T21:52:54.038Z,17.23
2024-04-13T21:55:23.814Z,17.14
2024-04-13T21:57:51.070Z,17.14
2024-04-13T22:00:20.926Z,17.10
2024-04-13T22:02:50.718Z,17.04
2024-04-13T22:05:21.906Z,16.94
2024-04-13T22:07:49.100Z,16.88
2024-04-13T22:10:21.243Z,16.82
2024-04-13T22:12:49.208Z,16.73
2024-04-13T22:15:19.065Z,16.69
2024-04-13T22:17:46.349Z,16.63
2024-04-13T22:20:21.315Z,16.62
2024-04-13T22:22:48.502Z,16.57
2024-04-13T22:25:22.542Z,16.52
2024-04-13T22:27:50.017Z,16.52
2024-04-13T22:30:20.327Z,16.44
2024-04-13T22:32:47.819Z,16.43
2024-04-13T22:35:20.727Z,16.38
2024-04-13T22:37:47.902Z,16.30
2024-04-13T22:40:19.668Z,16.29
2024-04-13T22:42:46.910Z,16.24
2024-04-13T22:45:17.023Z,16.17
2024-04-13T22:47:44.361Z,16.11
2024-04-13T22:50:14.588Z,16.17
2024-04-13T22:52:44.379Z,16.14
2024-04-13T22:55:14.205Z,16.08
2024-04-13T22:57:41.463Z,16.05
2024-04-13T23:00:12.400Z,16.05
2024-04-13T23:02:39.787Z,15.97
2024-04-13T23:05:12.649Z,15.97
2024-04-13T23:07:40.768Z,15.94
2024-04-13T23:10:13.461Z,15.91
2024-04-13T23:12:41.044Z,15.96
2024-04-13T23:15:11.808Z,16.00
2024-04-13T23:17:39.088Z,15.93
2024-04-13T23:20:09.891Z,15.84
2024-04-13T23:22:37.160Z,15.80
2024-04-13T23:25:07.608Z,15.78
2024-04-13T23:27:37.824Z,15.71
2024-04-13T23:30:08.693Z,15.61
2024-04-13T23:32:36.452Z,15.58
2024-04-13T23:35:06.314Z,15.55
2024-04-13T23:37:33.468Z,15.53
2024-04-13T23:40:03.297Z,15.50
2024-04-13T23:42:30.548Z,15.48
2024-04-13T23:45:03.125Z,15.41
2024-04-13T23:47:31.401Z,15.42
2024-04-13T23:50:01.370Z,15.41
2024-04-13T23:52:30.676Z,15.41
2024-04-13T23:55:00.554Z,15.40
2024-04-13T23:57:27.824Z,15.31
2024-04-13T23:59:57.680Z,15.21
